createdAt,value
2023-06-13T00:00:01.185Z,16.35
2023-06-13T00:02:29.682Z,19.90
2023-06-13T00:04:58.428Z,21.63
2023-06-13T00:07:26.028Z,18.13
2023-06-13T00:09:53.361Z,17.38
2023-06-13T00:12:21.563Z,18.73
2023-06-13T00:14:51.668Z,21.27
2023-06-13T00:17:19.800Z,19.33
2023-06-13T00:19:50.046Z,18.75
2023-06-13T00:22:17.296Z,18.65
2023-06-13T00:24:45.214Z,20.30
2023-06-13T00:27:12.398Z,20.45
2023-06-13T00:29:39.573Z,21.05
2023-06-13T00:32:07.330Z,18.33
2023-06-13T00:34:35.256Z,18.85
2023-06-13T00:37:04.033Z,19.35
2023-06-13T00:39:31.175Z,22.20
2023-06-13T00:42:01.179Z,18.23
2023-06-13T00:44:28.467Z,17.95
2023-06-13T00:46:57.269Z,17.25
2023-06-13T00:49:26.456Z,15.70
2023-06-13T00:51:56.416Z,17.17
2023-06-13T00:54:24.408Z,17.10
2023-06-13T00:56:51.904Z,18.65
2023-06-13T00:59:20.501Z,19.65
2023-06-13T01:01:48.677Z,16.45
2023-06-13T01:04:17.078Z,14.55
2023-06-13T01:06:46.900Z,16.92
2023-06-13T01:09:18.930Z,16.77
2023-06-13T01:11:51.891Z,16.30
2023-06-13T01:14:32.293Z,17.33
2023-06-13T01:17:05.776Z,16.33
2023-06-13T01:19:42.580Z,16.40
2023-06-13T01:22:18.376Z,14.55
2023-06-13T01:25:17.131Z,14.30
2023-06-13T01:27:46.479Z,13.88
2023-06-13T01:30:15.266Z,15.23
2023-06-13T01:32:44.175Z,14.07
2023-06-13T01:35:12.975Z,15.13
2023-06-13T01:37:41.104Z,13.15
2023-06-13T01:40:09.098Z,12.85
2023-06-13T01:42:36.467Z,14.05
2023-06-13T01:45:04.996Z,15.50
2023-06-13T01:47:42.659Z,15.75
2023-06-13T01:50:44.321Z,15.15
2023-06-13T01:53:27.644Z,14.98
2023-06-13T01:55:59.729Z,13.27
2023-06-13T01:58:35.520Z,12.00
2023-06-13T02:01:05.497Z,12.15
2023-06-13T02:03:34.407Z,12.30
2023-06-13T02:06:01.907Z,12.88
2023-06-13T02:08:29.662Z,12.52
2023-06-13T02:10:57.026Z,14.93
2023-06-13T02:13:24.792Z,13.52
2023-06-13T02:15:52.087Z,12.25
2023-06-13T02:18:19.353Z,13.13
2023-06-13T02:20:46.585Z,13.75
2023-06-13T02:23:14.053Z,14.15
2023-06-13T02:25:42.044Z,14.30
2023-06-13T02:28:09.183Z,13.65
2023-06-13T02:30:36.316Z,13.82
2023-06-13T02:33:03.661Z,12.98
2023-06-13T02:35:30.996Z,13.27
2023-06-13T02:37:58.189Z,12.95
2023-06-13T02:40:25.449Z,12.60
2023-06-13T02:42:55.791Z,13.48
2023-06-13T02:45:22.967Z,14.48
2023-06-13T02:47:50.245Z,16.08
2023-06-13T02:50:18.060Z,14.43
2023-06-13T02:52:45.808Z,15.82
2023-06-13T02:55:13.128Z,14.18
2023-06-13T02:57:40.760Z,12.70
2023-06-13T03:00:18.750Z,12.25
2023-06-13T03:02:52.458Z,14.43
2023-06-13T03:05:22.027Z,13.10
2023-06-13T03:07:52.140Z,13.63
2023-06-13T03:10:25.038Z,12.05
2023-06-13T03:12:52.524Z,11.88
2023-06-13T03:15:19.824Z,13.85
2023-06-13T03:17:48.370Z,11.52
2023-06-13T03:20:27.218Z,12.10
2023-06-13T03:22:57.543Z,11.68
2023-06-13T03:25:25.961Z,10.63
2023-06-13T03:27:53.215Z,10.95
2023-06-13T03:30:20.644Z,11.85
2023-06-13T03:32:47.927Z,9.95
2023-06-13T03:35:16.139Z,11.60
2023-06-13T03:37:43.447Z,11.60
2023-06-13T03:40:10.816Z,11.27
2023-06-13T03:42:38.264Z,10.07
2023-06-13T03:45:05.881Z,10.43
2023-06-13T03:47:35.637Z,10.95
2023-06-13T03:50:03.891Z,8.88
2023-06-13T03:52:31.272Z,9.80
2023-06-13T03:54:58.838Z,9.25
2023-06-13T03:57:26.262Z,9.27
2023-06-13T03:59:53.733Z,9.05
2023-06-13T04:02:21.493Z,12.50
2023-06-13T04:04:48.725Z,8.90
2023-06-13T04:07:17.034Z,10.07
2023-06-13T04:09:44.246Z,11.07
2023-06-13T04:12:13.203Z,8.43
2023-06-13T04:14:40.555Z,9.35
2023-06-13T04:17:10.793Z,9.63
2023-06-13T04:19:38.496Z,8.13
2023-06-13T04:22:06.841Z,9.73
2023-06-13T04:24:34.280Z,9.93
2023-06-13T04:27:05.084Z,8.98
2023-06-13T04:29:32.669Z,10.15
2023-06-13T04:32:00.015Z,8.75
2023-06-13T04:34:29.011Z,10.93
2023-06-13T04:36:58.893Z,8.38
2023-06-13T04:39:26.159Z,8.13
2023-06-13T04:41:56.745Z,9.68
2023-06-13T04:44:26.413Z,8.70
2023-06-13T04:46:58.754Z,9.40
2023-06-13T04:51:59.712Z,9.50
2023-06-13T04:54:27.260Z,9.57
2023-06-13T04:56:55.752Z,12.35
2023-06-13T04:59:23.020Z,8.65
2023-06-13T05:01:50.598Z,8.32
2023-06-13T05:04:17.968Z,9.07
2023-06-13T05:06:45.277Z,8.23
2023-06-13T05:09:15.279Z,9.25
2023-06-13T05:11:43.029Z,10.18
2023-06-13T05:14:10.263Z,9.60
2023-06-13T05:16:37.431Z,8.95
2023-06-13T05:19:06.578Z,11.60
2023-06-13T05:21:34.546Z,12.90
2023-06-13T05:24:02.239Z,11.80
2023-06-13T05:26:29.717Z,9.45
2023-06-13T05:28:58.521Z,11.95
2023-06-13T05:31:25.812Z,13.10
2023-06-13T05:33:53.139Z,9.63
2023-06-13T05:36:20.269Z,11.40
2023-06-13T05:38:47.740Z,11.60
2023-06-13T05:41:15.393Z,14.27
2023-06-13T05:43:42.730Z,13.75
2023-06-13T05:46:10.060Z,12.15
2023-06-13T05:48:37.341Z,17.70
2023-06-13T05:51:06.417Z,12.40
2023-06-13T05:53:33.807Z,12.45
2023-06-13T05:56:01.082Z,15.27
2023-06-13T05:58:28.305Z,15.25
2023-06-13T06:00:58.406Z,16.73
2023-06-13T06:03:26.030Z,13.35
2023-06-13T06:05:53.260Z,14.02
2023-06-13T06:08:20.757Z,15.88
2023-06-13T06:10:47.900Z,12.80
2023-06-13T06:13:15.045Z,16.88
2023-06-13T06:15:42.286Z,15.82
2023-06-13T06:18:10.188Z,12.10
2023-06-13T06:20:37.701Z,17.13
2023-06-13T06:23:05.022Z,12.60
2023-06-13T06:25:32.345Z,12.88
2023-06-13T06:27:59.673Z,11.23
2023-06-13T06:30:29.582Z,14.38
2023-06-13T06:32:58.447Z,11.57
2023-06-13T06:35:25.826Z,12.30
2023-06-13T06:37:53.026Z,16.00
2023-06-13T06:40:20.405Z,10.10
2023-06-13T06:42:47.976Z,13.63
2023-06-13T06:45:21.168Z,14.75
2023-06-13T06:47:48.436Z,12.50
2023-06-13T06:50:16.080Z,14.32
2023-06-13T06:52:43.511Z,13.40
2023-06-13T06:55:10.785Z,15.27
2023-06-13T06:57:37.949Z,12.60
2023-06-13T07:00:06.541Z,11.77
2023-06-13T07:02:33.870Z,12.15
2023-06-13T07:05:01.707Z,15.63
2023-06-13T07:07:29.069Z,11.80
2023-06-13T07:09:56.888Z,16.63
2023-06-13T07:12:24.015Z,13.38
2023-06-13T07:14:51.497Z,13.05
2023-06-13T07:17:18.616Z,11.95
2023-06-13T07:19:45.853Z,12.82
2023-06-13T07:22:13.036Z,17.70
2023-06-13T07:24:40.369Z,14.48
2023-06-13T07:27:08.112Z,17.70
2023-06-13T07:29:35.811Z,11.15
2023-06-13T07:32:03.238Z,13.73
2023-06-13T07:37:01.833Z,13.38
2023-06-13T07:39:29.028Z,11.18
2023-06-13T07:41:56.376Z,11.30
2023-06-13T07:44:23.558Z,11.73
2023-06-13T07:46:50.764Z,13.48
2023-06-13T07:49:18.029Z,14.55
2023-06-13T07:51:45.631Z,13.18
2023-06-13T07:54:13.178Z,14.45
2023-06-13T07:56:40.569Z,13.90
2023-06-13T07:59:08.274Z,12.18
2023-06-13T08:01:35.547Z,16.95
2023-06-13T08:04:02.934Z,15.50
2023-06-13T08:06:30.340Z,12.68
2023-06-13T08:08:57.522Z,14.15
2023-06-13T08:11:24.775Z,12.55
2023-06-13T08:13:52.017Z,16.15
2023-06-13T08:16:19.377Z,16.35
2023-06-13T08:18:46.538Z,14.48
2023-06-13T08:21:13.806Z,14.75
2023-06-13T08:23:41.263Z,16.67
2023-06-13T08:26:08.471Z,11.95
2023-06-13T08:28:37.053Z,13.55
2023-06-13T08:31:26.603Z,13.90
2023-06-13T08:34:07.773Z,20.25
2023-06-13T08:36:37.531Z,17.20
2023-06-13T08:39:08.193Z,15.82
2023-06-13T08:41:38.405Z,20.05
2023-06-13T08:44:07.024Z,16.05
2023-06-13T08:46:35.417Z,15.32
2023-06-13T08:49:03.221Z,15.60
2023-06-13T08:51:31.761Z,16.55
2023-06-13T08:54:05.381Z,13.82
2023-06-13T08:56:36.484Z,14.82
2023-06-13T08:59:09.791Z,14.00
2023-06-13T09:01:41.587Z,14.10
2023-06-13T09:04:11.936Z,14.23
2023-06-13T09:06:40.253Z,13.73
2023-06-13T09:09:07.784Z,15.40
2023-06-13T09:11:36.720Z,16.40
2023-06-13T09:14:08.764Z,13.48
2023-06-13T09:16:36.243Z,14.43
2023-06-13T09:19:03.659Z,13.25
2023-06-13T09:21:31.544Z,11.65
2023-06-13T09:24:00.575Z,12.95
2023-06-13T09:26:31.072Z,13.80
2023-06-13T09:28:58.899Z,15.20
2023-06-13T09:31:30.408Z,17.92
2023-06-13T09:34:01.656Z,13.55
2023-06-13T09:36:29.013Z,14.37
2023-06-13T09:38:56.412Z,14.68
2023-06-13T09:41:26.169Z,10.43
2023-06-13T09:43:54.123Z,11.23
2023-06-13T09:46:25.148Z,13.32
2023-06-13T09:48:53.545Z,16.30
2023-06-13T09:51:23.403Z,13.25
2023-06-13T09:53:51.254Z,19.20
2023-06-13T09:56:18.897Z,13.50
2023-06-13T09:58:53.341Z,15.93
2023-06-13T10:01:21.321Z,12.65
2023-06-13T10:03:48.646Z,13.52
2023-06-13T10:06:15.874Z,13.30
2023-06-13T10:08:43.276Z,12.55
2023-06-13T10:11:14.238Z,13.25
2023-06-13T10:13:52.017Z,14.70
2023-06-13T10:16:22.326Z,15.05
2023-06-13T10:18:52.171Z,12.43
2023-06-13T10:21:20.208Z,10.32
2023-06-13T10:23:50.943Z,13.35
2023-06-13T10:26:26.727Z,14.20
2023-06-13T10:29:44.379Z,12.02
2023-06-13T10:32:42.510Z,8.20
2023-06-13T10:35:39.582Z,10.70
2023-06-13T10:38:46.520Z,11.90
2023-06-13T10:41:16.401Z,12.02
2023-06-13T10:43:51.557Z,12.02
2023-06-13T10:46:19.203Z,9.77
2023-06-13T10:48:51.112Z,10.93
2023-06-13T10:51:27.482Z,15.80
2023-06-13T10:54:03.811Z,8.10
2023-06-13T10:56:32.684Z,10.55
2023-06-13T10:59:04.156Z,8.32
2023-06-13T11:01:33.268Z,8.50
2023-06-13T11:04:06.815Z,9.70
2023-06-13T11:06:34.226Z,8.20
2023-06-13T11:09:18.643Z,9.57
2023-06-13T11:11:47.970Z,9.68
2023-06-13T11:14:15.317Z,10.25
2023-06-13T11:16:44.499Z,9.50
2023-06-13T11:19:25.693Z,8.38
2023-06-13T11:22:04.857Z,8.80
2023-06-13T11:24:36.793Z,10.00
2023-06-13T11:29:35.807Z,10.95
2023-06-13T11:32:05.741Z,8.20
2023-06-13T11:34:36.196Z,8.20
2023-06-13T11:37:12.986Z,9.20
2023-06-13T11:39:43.379Z,9.98
2023-06-13T11:42:12.352Z,10.50
2023-06-13T11:44:39.872Z,10.18
2023-06-13T11:47:12.796Z,8.80
2023-06-13T11:49:40.464Z,12.45
2023-06-13T11:52:17.305Z,8.57
2023-06-13T11:54:49.073Z,10.10
2023-06-13T11:57:16.514Z,11.68
2023-06-13T11:59:44.673Z,15.38
2023-06-13T12:02:15.737Z,8.35
2023-06-13T12:04:51.064Z,12.37
2023-06-13T12:07:19.479Z,6.95
2023-06-13T12:09:47.265Z,10.45
2023-06-13T12:12:14.470Z,13.35
2023-06-13T12:14:41.821Z,10.10
2023-06-13T12:17:10.914Z,9.98
2023-06-13T12:19:38.321Z,16.85
2023-06-13T12:22:07.247Z,9.32
2023-06-13T12:24:34.724Z,8.30
2023-06-13T12:27:03.737Z,9.70
2023-06-13T12:29:34.975Z,13.13
2023-06-13T12:32:07.244Z,12.18
2023-06-13T12:34:39.376Z,9.88
2023-06-13T12:37:13.519Z,11.10
2023-06-13T12:40:08.027Z,9.32
2023-06-13T12:42:38.370Z,7.93
2023-06-13T12:45:06.069Z,10.48
2023-06-13T12:47:33.654Z,9.45
2023-06-13T12:50:09.294Z,6.82
2023-06-13T12:52:37.374Z,8.73
2023-06-13T12:55:05.278Z,7.95
2023-06-13T12:57:32.658Z,9.70
2023-06-13T12:59:59.967Z,8.82
2023-06-13T13:02:28.462Z,14.75
2023-06-13T13:07:47.590Z,11.88
2023-06-13T13:10:15.177Z,7.53
2023-06-13T13:12:42.827Z,12.20
2023-06-13T13:15:10.333Z,9.40
2023-06-13T13:17:37.633Z,6.53
2023-06-13T13:20:05.866Z,9.10
2023-06-13T13:22:33.108Z,6.07
2023-06-13T13:25:00.453Z,5.82
2023-06-13T13:27:27.738Z,5.65
2023-06-13T13:29:58.309Z,6.70
2023-06-13T13:32:27.308Z,6.72
2023-06-13T13:34:54.475Z,5.70
2023-06-13T13:37:22.149Z,6.70
2023-06-13T13:39:49.534Z,7.47
2023-06-13T13:42:25.573Z,5.22
2023-06-13T13:44:54.675Z,5.72
2023-06-13T13:47:22.122Z,8.05
2023-06-13T13:49:49.277Z,8.55
2023-06-13T13:52:16.528Z,6.03
2023-06-13T13:54:48.415Z,7.45
2023-06-13T13:57:15.585Z,6.60
2023-06-13T13:59:42.820Z,9.75
2023-06-13T14:02:10.095Z,9.88
2023-06-13T14:04:37.652Z,6.40
2023-06-13T14:07:05.577Z,9.52
2023-06-13T14:09:34.141Z,6.05
2023-06-13T14:12:02.585Z,6.60
2023-06-13T14:14:32.307Z,5.88
2023-06-13T14:16:59.945Z,5.80
2023-06-13T14:19:27.619Z,8.68
2023-06-13T14:21:57.456Z,5.35
2023-06-13T14:24:24.910Z,7.25
2023-06-13T14:26:55.014Z,7.43
2023-06-13T14:29:29.995Z,5.30
2023-06-13T14:31:57.898Z,6.72
2023-06-13T14:34:25.239Z,5.32
2023-06-13T14:36:56.213Z,7.55
2023-06-13T14:39:23.496Z,10.52
2023-06-13T14:41:51.070Z,8.30
2023-06-13T14:44:18.617Z,8.32
2023-06-13T14:46:46.299Z,8.27
2023-06-13T14:49:13.731Z,4.90
2023-06-13T14:51:42.728Z,7.20
2023-06-13T14:54:12.100Z,4.50
2023-06-13T14:56:40.159Z,5.03
2023-06-13T14:59:07.584Z,8.90
2023-06-13T15:01:37.091Z,6.35
2023-06-13T15:04:04.699Z,6.63
2023-06-13T15:06:32.523Z,10.48
2023-06-13T15:09:00.803Z,10.35
2023-06-13T15:11:30.278Z,6.82
2023-06-13T15:13:57.989Z,7.65
2023-06-13T15:16:26.395Z,10.55
2023-06-13T15:18:53.802Z,7.30
2023-06-13T15:21:21.141Z,6.38
2023-06-13T15:23:49.260Z,6.60
2023-06-13T15:26:16.895Z,6.18
2023-06-13T15:28:49.355Z,5.90
2023-06-13T15:31:20.953Z,8.40
2023-06-13T15:33:48.757Z,7.25
2023-06-13T15:36:16.890Z,9.20
2023-06-13T15:38:44.120Z,7.22
2023-06-13T15:41:11.425Z,7.03
2023-06-13T15:43:42.953Z,6.97
2023-06-13T15:46:14.014Z,6.20
2023-06-13T15:48:41.550Z,8.85
2023-06-13T15:51:10.089Z,5.20
2023-06-13T15:53:40.343Z,6.97
2023-06-13T15:56:11.685Z,7.97
2023-06-13T15:58:39.603Z,6.63
2023-06-13T16:01:07.171Z,8.73
2023-06-13T16:03:37.604Z,5.95
2023-06-13T16:06:06.744Z,6.38
2023-06-13T16:08:37.839Z,5.65
2023-06-13T16:11:05.105Z,8.43
2023-06-13T16:13:32.793Z,6.72
2023-06-13T16:16:04.332Z,7.68
2023-06-13T16:18:31.898Z,12.68
2023-06-13T16:20:59.238Z,5.13
2023-06-13T16:23:32.281Z,7.57
2023-06-13T16:25:59.882Z,5.20
2023-06-13T16:28:27.495Z,5.95
2023-06-13T16:30:55.225Z,7.10
2023-06-13T16:33:22.553Z,4.97
2023-06-13T16:35:50.473Z,8.50
2023-06-13T16:38:17.615Z,5.55
2023-06-13T16:40:45.373Z,6.55
2023-06-13T16:43:12.516Z,5.40
2023-06-13T16:45:40.173Z,6.22
2023-06-13T16:48:07.677Z,9.68
2023-06-13T16:50:35.644Z,8.02
2023-06-13T16:53:02.810Z,8.85
2023-06-13T16:55:30.637Z,8.30
2023-06-13T16:58:03.701Z,8.57
2023-06-13T17:00:31.535Z,10.10
2023-06-13T17:02:59.316Z,4.78
2023-06-13T17:05:26.810Z,6.20
2023-06-13T17:07:56.668Z,6.32
2023-06-13T17:10:26.404Z,6.00
2023-06-13T17:12:57.005Z,5.78
2023-06-13T17:15:24.401Z,6.05
2023-06-13T17:18:01.025Z,7.38
2023-06-13T17:20:28.910Z,5.93
2023-06-13T17:22:56.354Z,8.90
2023-06-13T17:25:24.030Z,6.05
2023-06-13T17:27:51.393Z,6.18
2023-06-13T17:30:18.836Z,8.32
2023-06-13T17:32:47.473Z,7.28
2023-06-13T17:35:15.203Z,5.90
2023-06-13T17:37:45.961Z,4.90
2023-06-13T17:40:13.164Z,7.18
2023-06-13T17:42:40.784Z,7.60
2023-06-13T17:45:09.871Z,6.32
2023-06-13T17:47:37.676Z,5.80
2023-06-13T17:50:05.920Z,9.15
2023-06-13T17:52:33.566Z,7.82
2023-06-13T17:55:18.400Z,8.82
2023-06-13T17:57:49.301Z,7.63
2023-06-13T18:00:17.109Z,6.43
2023-06-13T18:02:44.418Z,6.10
2023-06-13T18:05:18.090Z,7.57
2023-06-13T18:07:48.210Z,7.20
2023-06-13T18:10:15.555Z,8.55
2023-06-13T18:12:52.251Z,7.75
2023-06-13T18:15:27.829Z,6.13
2023-06-13T18:17:57.435Z,6.18
2023-06-13T18:20:27.954Z,6.38
2023-06-13T18:22:58.801Z,6.63
2023-06-13T18:25:31.208Z,5.70
2023-06-13T18:28:02.097Z,6.32
2023-06-13T18:30:29.365Z,6.03
2023-06-13T18:32:59.695Z,5.82
2023-06-13T18:35:39.417Z,7.53
2023-06-13T18:38:07.904Z,5.20
2023-06-13T18:40:38.294Z,7.70
2023-06-13T18:43:06.113Z,7.35
2023-06-13T18:45:33.900Z,5.97
2023-06-13T18:48:01.459Z,7.07
2023-06-13T18:50:29.177Z,7.00
2023-06-13T18:53:05.339Z,6.22
2023-06-13T18:55:33.485Z,6.97
2023-06-13T18:58:00.759Z,5.63
2023-06-13T19:00:30.024Z,6.53
2023-06-13T19:03:00.718Z,8.10
2023-06-13T19:05:30.474Z,5.00
2023-06-13T19:07:58.102Z,7.07
2023-06-13T19:10:26.094Z,7.40
2023-06-13T19:12:53.428Z,8.05
2023-06-13T19:15:21.023Z,4.90
2023-06-13T19:17:48.477Z,5.53
2023-06-13T19:20:16.341Z,6.10
2023-06-13T19:22:43.749Z,4.55
2023-06-13T19:25:11.094Z,5.75
2023-06-13T19:27:38.733Z,5.13
2023-06-13T19:30:06.972Z,7.47
2023-06-13T19:32:34.709Z,5.90
2023-06-13T19:35:03.253Z,7.20
2023-06-13T19:37:30.715Z,6.10
2023-06-13T19:39:58.040Z,5.60
2023-06-13T19:42:25.327Z,4.50
2023-06-13T19:44:52.886Z,8.65
2023-06-13T19:47:20.200Z,5.45
2023-06-13T19:49:47.431Z,9.50
2023-06-13T19:52:14.697Z,8.25
2023-06-13T19:54:42.016Z,6.10
2023-06-13T19:57:09.951Z,7.68
2023-06-13T19:59:41.817Z,5.10
2023-06-13T20:02:09.314Z,6.72
2023-06-13T20:04:37.045Z,7.47
2023-06-13T20:07:04.626Z,6.90
2023-06-13T20:09:31.974Z,4.85
2023-06-13T20:12:00.825Z,5.07
2023-06-13T20:14:29.588Z,5.45
2023-06-13T20:16:57.838Z,6.25
2023-06-13T20:19:25.530Z,6.63
2023-06-13T20:21:53.871Z,11.77
2023-06-13T20:24:21.442Z,8.88
2023-06-13T20:26:48.947Z,7.97
2023-06-13T20:29:16.470Z,7.40
2023-06-13T20:31:44.396Z,5.35
2023-06-13T20:34:13.504Z,6.05
2023-06-13T20:36:41.460Z,5.35
2023-06-13T20:39:10.355Z,6.22
2023-06-13T20:41:38.230Z,4.57
2023-06-13T20:44:08.729Z,8.35
2023-06-13T20:46:39.295Z,5.78
2023-06-13T20:49:07.227Z,10.52
2023-06-13T20:51:38.493Z,8.30
2023-06-13T20:54:06.409Z,5.53
2023-06-13T20:56:33.742Z,8.27
2023-06-13T20:59:00.972Z,5.03
2023-06-13T21:01:29.575Z,4.72
2023-06-13T21:03:57.058Z,6.22
2023-06-13T21:06:25.907Z,9.20
2023-06-13T21:08:53.369Z,6.20
2023-06-13T21:11:20.617Z,6.45
2023-06-13T21:13:48.025Z,5.95
2023-06-13T21:16:20.698Z,7.22
2023-06-13T21:18:50.364Z,5.00
2023-06-13T21:21:17.975Z,6.75
2023-06-13T21:23:45.808Z,5.53
2023-06-13T21:26:12.975Z,4.95
2023-06-13T21:28:40.123Z,5.20
2023-06-13T21:31:09.609Z,5.45
2023-06-13T21:33:37.099Z,5.30
2023-06-13T21:36:04.462Z,5.55
2023-06-13T21:38:32.789Z,6.25
2023-06-13T21:41:03.290Z,3.85
2023-06-13T21:43:30.474Z,4.28
2023-06-13T21:46:00.363Z,6.07
2023-06-13T21:48:27.633Z,5.28
2023-06-13T21:50:54.816Z,8.30
2023-06-13T21:53:22.703Z,9.55
2023-06-13T21:55:50.006Z,4.68
2023-06-13T21:58:20.820Z,5.47
2023-06-13T22:00:48.141Z,3.17
2023-06-13T22:03:15.654Z,6.68
2023-06-13T22:05:49.245Z,4.78
2023-06-13T22:08:16.406Z,7.35
2023-06-13T22:10:44.602Z,4.75
2023-06-13T22:13:12.579Z,7.07
2023-06-13T22:15:40.818Z,6.50
2023-06-13T22:18:08.099Z,4.38
2023-06-13T22:20:35.257Z,4.53
2023-06-13T22:23:03.883Z,8.10
2023-06-13T22:25:31.433Z,5.10
2023-06-13T22:27:58.881Z,5.35
2023-06-13T22:30:29.293Z,6.78
2023-06-13T22:32:56.545Z,4.43
2023-06-13T22:35:24.223Z,3.85
2023-06-13T22:37:52.646Z,5.13
2023-06-13T22:40:20.491Z,4.13
2023-06-13T22:42:48.133Z,7.88
2023-06-13T22:45:15.853Z,7.85
2023-06-13T22:47:43.367Z,6.07
2023-06-13T22:50:11.001Z,6.43
2023-06-13T22:52:38.154Z,6.68
2023-06-13T22:55:05.775Z,6.03
2023-06-13T22:57:33.395Z,6.55
2023-06-13T23:00:00.755Z,6.93
2023-06-13T23:02:28.088Z,4.30
2023-06-13T23:04:58.151Z,4.32
2023-06-13T23:07:26.515Z,4.97
2023-06-13T23:09:53.904Z,4.82
2023-06-13T23:12:21.302Z,5.90
2023-06-13T23:14:48.501Z,5.93
2023-06-13T23:17:15.975Z,6.57
2023-06-13T23:19:53.593Z,6.60
2023-06-13T23:22:29.500Z,8.27
2023-06-13T23:24:57.683Z,5.75
2023-06-13T23:27:26.270Z,5.05
2023-06-13T23:29:54.606Z,5.60
2023-06-13T23:32:27.180Z,5.95
2023-06-13T23:34:55.491Z,2.90
2023-06-13T23:37:24.750Z,2.72
2023-06-13T23:39:52.521Z,5.30
2023-06-13T23:42:19.790Z,2.72
2023-06-13T23:44:48.037Z,5.50
2023-06-13T23:47:15.595Z,4.80
2023-06-13T23:49:42.909Z,5.25
2023-06-13T23:52:10.157Z,5.57
2023-06-13T23:54:37.376Z,5.13
2023-06-13T23:57:05.042Z,4.85
2023-06-13T23:59:33.564Z,4.80
